KAPN/APN METAR and TAF weather

Enter ICAO airport designator
Station Type Date Time Source
KAPN METAR 2021/03/05 18:54 UTC NOAA

KAPN 051854Z 31016G27KT 10SM CLR 03/M09 A3015 RMK AO2 PK WND 33031/1800 SLP220 T00281089


Station Type Date Time Source
KAPN Decoded METAR 2021/03/05 18:54 UTC NOAA

ALPENA COUNTY REGIONAL AIRPORT, MI, United States (KAPN) 45-05N 083-34W 210M
Mar 05, 2021 - 01:54 PM EST / 2021.03.05 1854 UTC
Wind: from the NW (310 degrees) at 18 MPH (16 KT) gusting to 31 MPH (27 KT):0
Visibility: 10 mile(s):0
Sky conditions: clear
Temperature: 37.0 F (2.8 C)
Dew Point: 16.0 F (-8.9 C)
Relative Humidity: 41%
Pressure (altimeter): 30.15 in. Hg (1020 hPa)
ob: KAPN 051854Z 31016G27KT 10SM CLR 03/M09 A3015 RMK AO2 PK WND 33031/1800 SLP220 T00281089
cycle: 19

Station Type Date Time Source
KAPN TAF 2021/03/05 18:33 UTC NOAA

TAF KAPN 051730Z 0518/0618 32015G25KT P6SM SKC
FM060100 32011KT P6SM FEW250
FM061400 32010G18KT P6SM SCT250

Example: see airport list